Bookmark and Share
Track history (hours):
 

Nissho Maru No.18

Last reported at 2014-Apr-19 10:25 UTC. Time now 2014-Apr-20 15:57 UTC.
Position N 34°46' E 139°06'.

Length 65 m; draft 4 m.

Type: Tanker. MMSI: 431500465.

NotesDate/timePositionNaut miles runAvg speedWind from/ knotsBaromVisibWave heightAir tempDewpointWater temp
2014-Apr-19 10:25N 34°46' E 139°06'1011.4
2014-Apr-19 09:30N 34°54' E 139°13'1211.1
2014-Apr-19 08:25N 35°00' E 139°26'1011.2
2014-Apr-19 07:33N 35°04' E 139°36'1211.5
2014-Apr-19 06:33N 35°13' E 139°46'1010.4
2014-Apr-19 05:33N 35°22' E 139°42'1111.0
2014-Apr-19 04:33N 35°30' E 139°52'8 8.2
2014-Apr-19 03:33N 35°31' E 140°02'0 0.0
2014-Apr-19 02:33N 35°31' E 140°02'0 0.0
2014-Apr-19 01:33N 35°31' E 140°02'0 0.0
2014-Apr-19 00:33N 35°31' E 140°02'0 0.0
2014-Apr-18 23:33N 35°31' E 140°02'6 6.1
2014-Apr-18 22:33N 35°29' E 139°55'0 0.1
2014-Apr-18 21:33N 35°28' E 139°55'0 0.0
2014-Apr-18 20:33N 35°28' E 139°55'0 0.0
2014-Apr-18 19:33N 35°28' E 139°55'0 0.0
2014-Apr-18 18:33N 35°28' E 139°55'0 0.0
2014-Apr-18 17:33N 35°28' E 139°55'0 0.0
2014-Apr-18 16:33N 35°28' E 139°55'0 0.0
2014-Apr-18 15:33N 35°28' E 139°55'0 0.0
2014-Apr-18 14:33N 35°28' E 139°55'0 0.0
2014-Apr-18 13:33N 35°28' E 139°55'0 0.0
2014-Apr-18 12:33N 35°28' E 139°55'0 0.0
2014-Apr-18 11:33N 35°28' E 139°55'0 0.0
2014-Apr-18 10:33N 35°28' E 139°55'0 0.0
2014-Apr-18 09:33N 35°28' E 139°55'0 0.4
2014-Apr-18 08:33N 35°28' E 139°55'1110.5
2014-Apr-18 07:33N 35°21' E 139°45'1111.2
2014-Apr-18 06:34N 35°10' E 139°46'1111.3
2014-Apr-18 05:32N 34°59' E 139°43'1310.3
2014-Apr-18 04:18N 34°53' E 139°57'911.5
2014-Apr-18 03:32N 34°58' E 140°06'2611.2
2014-Apr-18 01:14N 35°14' E 140°30'1011.5
2014-Apr-18 00:20N 35°22' E 140°39'4311.1
2014-Apr-17 20:27N 36°02' E 140°58'14 0.5
2014-Apr-16 14:22N 35°48' E 140°56'2511.5
2014-Apr-16 12:14N 35°26' E 140°42'1411.9
2014-Apr-16 11:06N 35°15' E 140°32'2112.2
2014-Apr-16 09:21N 35°01' E 140°13'911.6
2014-Apr-16 08:32N 34°56' E 140°03'17 8.5
2014-Apr-16 06:33N 35°00' E 139°43'1110.7
2014-Apr-16 05:33N 35°11' E 139°46'9 9.4
2014-Apr-16 04:33N 35°20' E 139°43'6 5.9
2014-Apr-16 03:33N 35°25' E 139°39'0 0.0
2014-Apr-16 02:33N 35°25' E 139°39'0 0.0
2014-Apr-16 01:28N 35°25' E 139°39'0 0.0
2014-Apr-16 00:27N 35°25' E 139°39'0 0.0
2014-Apr-15 23:30N 35°25' E 139°39'2 2.4
2014-Apr-15 22:33N 35°23' E 139°40'0 0.0
2014-Apr-15 21:33N 35°23' E 139°40'0 0.0
2014-Apr-15 20:33N 35°23' E 139°40'0 0.0
2014-Apr-15 19:33N 35°23' E 139°40'0 0.1
2014-Apr-15 18:33N 35°23' E 139°40'0 0.0
2014-Apr-15 17:33N 35°23' E 139°40'0 0.0
2014-Apr-15 16:33N 35°23' E 139°40'0 0.0
2014-Apr-15 15:33N 35°23' E 139°40'0 0.0
2014-Apr-15 14:33N 35°23' E 139°40'0 0.0
2014-Apr-15 12:34N 35°23' E 139°40'0 0.0
2014-Apr-15 11:34N 35°23' E 139°40'0 0.0
2014-Apr-15 10:34N 35°23' E 139°40'0 0.0
2014-Apr-15 09:34N 35°23' E 139°40'0 0.0
2014-Apr-15 08:34N 35°23' E 139°40'8 7.7
2014-Apr-15 07:34N 35°30' E 139°44'1 1.4
2014-Apr-15 06:34N 35°31' E 139°45'0 0.0
2014-Apr-15 05:34N 35°31' E 139°45'9 4.4
2014-Apr-15 03:34N 35°23' E 139°45'1111.2
2014-Apr-15 02:34N 35°11' E 139°47'1110.9
2014-Apr-15 01:33N 35°02' E 139°39'  
2014-Apr-10 13:25N 34°38' E 134°52'8 9.8
2014-Apr-10 12:33N 34°37' E 135°03'9 8.7
2014-Apr-10 11:33N 34°28' E 135°03'1110.5
2014-Apr-10 10:28N 34°17' E 134°59'1010.3
2014-Apr-10 09:32N 34°07' E 135°00'  

Dump ship's entire track history

sailing weather and tide predictions

Nissho Maru No.18 — JL6369 — position and weather